Terminal Aerodrome Forecast
Issued by NWS Quad Cities IA IL

Home | Current Version | Previous Version | Text Only | Print | Product List | Glossary On
Versions: 1 2 3 4 5 6 7 8 9 10 11 12 13 14 15 16 17 18 19
000
FTUS43 KDVN 262338
TAFMLI
TAF
KMLI 262338Z 2700/2724 08005KT P6SM FEW100 BKN200
     FM270300 11005KT P6SM VCTS BKN050CB OVC090
      TEMPO 2704/2708 2SM TSRA BR BKN025CB OVC050
     FM270800 14006KT 6SM BR VCSH OVC030
     FM271500 21005KT P6SM FEW035 SCT250=

USA.gov is the U.S. government's official web portal to all federal, state and local government web resources and services.